sensor_id;sensor_type;location;lat;lon;timestamp;temperature;humidity
16532;DHT22;66872;63.142;14.482;2023-01-24T00:00:07;20.70;18.40
16532;DHT22;66872;63.142;14.482;2023-01-24T00:02:33;20.70;17.90
16532;DHT22;66872;63.142;14.482;2023-01-24T00:04:59;20.70;18.00
16532;DHT22;66872;63.142;14.482;2023-01-24T00:07:25;20.70;18.00
16532;DHT22;66872;63.142;14.482;2023-01-24T00:09:50;20.70;18.00
16532;DHT22;66872;63.142;14.482;2023-01-24T00:12:16;20.70;18.00
16532;DHT22;66872;63.142;14.482;2023-01-24T00:14:42;20.70;18.00
16532;DHT22;66872;63.142;14.482;2023-01-24T00:17:07;20.70;18.00
16532;DHT22;66872;63.142;14.482;2023-01-24T00:19:33;20.70;18.00
16532;DHT22;66872;63.142;14.482;2023-01-24T00:22:01;20.70;18.00
16532;DHT22;66872;63.142;14.482;2023-01-24T00:24:27;20.70;18.00
16532;DHT22;66872;63.142;14.482;2023-01-24T00:26:54;20.70;18.00
16532;DHT22;66872;63.142;14.482;2023-01-24T00:29:19;20.70;18.10
16532;DHT22;66872;63.142;14.482;2023-01-24T00:31:45;20.70;18.10
16532;DHT22;66872;63.142;14.482;2023-01-24T00:34:11;20.70;18.10
16532;DHT22;66872;63.142;14.482;2023-01-24T00:36:36;20.70;18.10
16532;DHT22;66872;63.142;14.482;2023-01-24T00:39:02;20.70;18.10
16532;DHT22;66872;63.142;14.482;2023-01-24T00:41:28;20.70;18.10
16532;DHT22;66872;63.142;14.482;2023-01-24T00:43:54;20.70;18.10
16532;DHT22;66872;63.142;14.482;2023-01-24T00:46:20;20.70;18.20
16532;DHT22;66872;63.142;14.482;2023-01-24T00:48:45;20.70;18.10
16532;DHT22;66872;63.142;14.482;2023-01-24T00:51:11;20.70;18.20
16532;DHT22;66872;63.142;14.482;2023-01-24T00:53:37;20.70;18.20
16532;DHT22;66872;63.142;14.482;2023-01-24T00:56:02;20.70;18.20
16532;DHT22;66872;63.142;14.482;2023-01-24T00:58:28;20.70;18.20
16532;DHT22;66872;63.142;14.482;2023-01-24T01:00:55;20.70;18.30
16532;DHT22;66872;63.142;14.482;2023-01-24T01:03:21;20.70;18.20
16532;DHT22;66872;63.142;14.482;2023-01-24T01:05:47;20.70;18.30
16532;DHT22;66872;63.142;14.482;2023-01-24T01:08:13;20.70;18.30
16532;DHT22;66872;63.142;14.482;2023-01-24T01:10:40;20.70;18.30
16532;DHT22;66872;63.142;14.482;2023-01-24T01:13:06;20.70;18.40
16532;DHT22;66872;63.142;14.482;2023-01-24T01:15:32;20.70;18.30
16532;DHT22;66872;63.142;14.482;2023-01-24T01:17:58;20.70;18.40
16532;DHT22;66872;63.142;14.482;2023-01-24T01:20:24;20.70;18.40
16532;DHT22;66872;63.142;14.482;2023-01-24T01:22:50;20.70;18.40
16532;DHT22;66872;63.142;14.482;2023-01-24T01:25:16;20.70;18.40
16532;DHT22;66872;63.142;14.482;2023-01-24T01:27:42;20.70;18.40
16532;DHT22;66872;63.142;14.482;2023-01-24T01:30:08;20.70;18.50
16532;DHT22;66872;63.142;14.482;2023-01-24T01:32:34;20.70;18.50
16532;DHT22;66872;63.142;14.482;2023-01-24T01:34:59;20.70;18.50
16532;DHT22;66872;63.142;14.482;2023-01-24T01:37:25;20.70;18.50
16532;DHT22;66872;63.142;14.482;2023-01-24T01:39:50;20.70;18.60
16532;DHT22;66872;63.142;14.482;2023-01-24T01:42:16;20.70;18.60
16532;DHT22;66872;63.142;14.482;2023-01-24T01:44:42;20.70;19.00
16532;DHT22;66872;63.142;14.482;2023-01-24T01:49:46;20.70;18.60
16532;DHT22;66872;63.142;14.482;2023-01-24T01:52:14;20.70;18.60
16532;DHT22;66872;63.142;14.482;2023-01-24T01:54:41;20.70;18.70
16532;DHT22;66872;63.142;14.482;2023-01-24T01:57:22;20.70;18.70
16532;DHT22;66872;63.142;14.482;2023-01-24T01:59:59;20.70;18.60
16532;DHT22;66872;63.142;14.482;2023-01-24T02:02:59;20.70;18.70
16532;DHT22;66872;63.142;14.482;2023-01-24T02:05:47;20.70;18.70
16532;DHT22;66872;63.142;14.482;2023-01-24T02:08:18;20.70;18.70
16532;DHT22;66872;63.142;14.482;2023-01-24T02:10:45;20.70;18.70
16532;DHT22;66872;63.142;14.482;2023-01-24T02:13:29;20.70;18.70
16532;DHT22;66872;63.142;14.482;2023-01-24T02:15:55;20.60;18.70
16532;DHT22;66872;63.142;14.482;2023-01-24T02:18:34;20.70;18.70
16532;DHT22;66872;63.142;14.482;2023-01-24T02:21:02;20.70;18.80
16532;DHT22;66872;63.142;14.482;2023-01-24T02:23:53;20.70;18.70
16532;DHT22;66872;63.142;14.482;2023-01-24T02:26:24;20.70;18.80
16532;DHT22;66872;63.142;14.482;2023-01-24T02:29:00;20.70;18.70
16532;DHT22;66872;63.142;14.482;2023-01-24T02:31:27;20.60;18.80
16532;DHT22;66872;63.142;14.482;2023-01-24T02:33:52;20.70;18.80
16532;DHT22;66872;63.142;14.482;2023-01-24T02:36:30;20.70;18.80
16532;DHT22;66872;63.142;14.482;2023-01-24T02:39:10;20.70;18.90
16532;DHT22;66872;63.142;14.482;2023-01-24T02:41:59;20.70;18.90
16532;DHT22;66872;63.142;14.482;2023-01-24T02:44:34;20.60;18.80
16532;DHT22;66872;63.142;14.482;2023-01-24T02:47:03;20.70;18.90
16532;DHT22;66872;63.142;14.482;2023-01-24T02:49:28;20.60;18.90
16532;DHT22;66872;63.142;14.482;2023-01-24T02:51:54;20.60;18.90
16532;DHT22;66872;63.142;14.482;2023-01-24T02:54:38;20.70;19.00
16532;DHT22;66872;63.142;14.482;2023-01-24T02:57:05;20.70;19.00
16532;DHT22;66872;63.142;14.482;2023-01-24T02:59:49;20.60;18.90
16532;DHT22;66872;63.142;14.482;2023-01-24T03:02:15;20.60;18.90
16532;DHT22;66872;63.142;14.482;2023-01-24T03:58:32;20.60;19.40
16532;DHT22;66872;63.142;14.482;2023-01-24T04:00:58;20.60;19.30
16532;DHT22;66872;63.142;14.482;2023-01-24T04:03:24;20.60;19.30
16532;DHT22;66872;63.142;14.482;2023-01-24T04:05:50;20.60;19.30
16532;DHT22;66872;63.142;14.482;2023-01-24T04:08:17;20.60;19.30
16532;DHT22;66872;63.142;14.482;2023-01-24T04:10:43;20.60;19.30
16532;DHT22;66872;63.142;14.482;2023-01-24T04:13:10;20.60;19.40
16532;DHT22;66872;63.142;14.482;2023-01-24T04:15:36;20.70;19.50
16532;DHT22;66872;63.142;14.482;2023-01-24T04:18:03;20.70;19.40
16532;DHT22;66872;63.142;14.482;2023-01-24T04:20:32;20.70;19.30
16532;DHT22;66872;63.142;14.482;2023-01-24T04:23:02;20.70;19.50
16532;DHT22;66872;63.142;14.482;2023-01-24T04:25:28;20.70;19.40
16532;DHT22;66872;63.142;14.482;2023-01-24T04:27:55;20.70;19.40
16532;DHT22;66872;63.142;14.482;2023-01-24T04:30:20;20.70;19.50
16532;DHT22;66872;63.142;14.482;2023-01-24T04:32:46;20.70;19.50
16532;DHT22;66872;63.142;14.482;2023-01-24T04:35:17;20.70;19.60
16532;DHT22;66872;63.142;14.482;2023-01-24T04:37:42;20.70;19.50
16532;DHT22;66872;63.142;14.482;2023-01-24T04:40:08;20.70;19.50
16532;DHT22;66872;63.142;14.482;2023-01-24T04:42:34;20.70;19.60
16532;DHT22;66872;63.142;14.482;2023-01-24T04:45:00;20.70;19.60
16532;DHT22;66872;63.142;14.482;2023-01-24T04:47:26;20.70;19.60
16532;DHT22;66872;63.142;14.482;2023-01-24T04:49:51;20.70;19.70
16532;DHT22;66872;63.142;14.482;2023-01-24T04:52:17;20.70;19.60
16532;DHT22;66872;63.142;14.482;2023-01-24T04:54:43;20.70;19.60
16532;DHT22;66872;63.142;14.482;2023-01-24T04:57:11;20.70;19.60
16532;DHT22;66872;63.142;14.482;2023-01-24T04:59:37;20.70;19.60
16532;DHT22;66872;63.142;14.482;2023-01-24T05:02:02;20.70;19.60
16532;DHT22;66872;63.142;14.482;2023-01-24T05:04:28;20.70;19.60
16532;DHT22;66872;63.142;14.482;2023-01-24T05:06:54;20.70;19.70
16532;DHT22;66872;63.142;14.482;2023-01-24T05:09:20;20.70;19.60
16532;DHT22;66872;63.142;14.482;2023-01-24T05:11:45;20.70;19.70
16532;DHT22;66872;63.142;14.482;2023-01-24T05:14:11;20.70;19.70
16532;DHT22;66872;63.142;14.482;2023-01-24T05:16:37;20.70;19.60
16532;DHT22;66872;63.142;14.482;2023-01-24T05:19:03;20.70;19.60
16532;DHT22;66872;63.142;14.482;2023-01-24T05:21:29;20.70;19.60
16532;DHT22;66872;63.142;14.482;2023-01-24T05:23:55;20.70;19.60
16532;DHT22;66872;63.142;14.482;2023-01-24T05:26:23;20.70;19.60
16532;DHT22;66872;63.142;14.482;2023-01-24T05:28:49;20.70;19.70
16532;DHT22;66872;63.142;14.482;2023-01-24T05:31:15;20.70;19.70
16532;DHT22;66872;63.142;14.482;2023-01-24T05:33:41;20.70;19.70
16532;DHT22;66872;63.142;14.482;2023-01-24T05:36:11;20.70;19.70
16532;DHT22;66872;63.142;14.482;2023-01-24T05:38:37;20.70;19.70
16532;DHT22;66872;63.142;14.482;2023-01-24T05:41:06;20.70;19.70
16532;DHT22;66872;63.142;14.482;2023-01-24T05:43:33;20.70;19.70
16532;DHT22;66872;63.142;14.482;2023-01-24T05:46:07;20.70;19.60
16532;DHT22;66872;63.142;14.482;2023-01-24T05:48:34;20.70;19.60
16532;DHT22;66872;63.142;14.482;2023-01-24T05:51:03;20.70;19.60
16532;DHT22;66872;63.142;14.482;2023-01-24T05:53:30;20.70;19.70
16532;DHT22;66872;63.142;14.482;2023-01-24T05:55:58;20.70;19.80
16532;DHT22;66872;63.142;14.482;2023-01-24T05:58:28;20.70;19.80
16532;DHT22;66872;63.142;14.482;2023-01-24T06:00:54;20.70;19.70
16532;DHT22;66872;63.142;14.482;2023-01-24T06:03:20;20.70;19.80
16532;DHT22;66872;63.142;14.482;2023-01-24T06:05:51;20.70;19.80
16532;DHT22;66872;63.142;14.482;2023-01-24T06:08:18;20.70;19.80
16532;DHT22;66872;63.142;14.482;2023-01-24T06:10:44;20.70;19.80
16532;DHT22;66872;63.142;14.482;2023-01-24T06:13:10;20.70;19.80
16532;DHT22;66872;63.142;14.482;2023-01-24T06:15:36;20.70;19.80
16532;DHT22;66872;63.142;14.482;2023-01-24T06:18:02;20.70;19.80
16532;DHT22;66872;63.142;14.482;2023-01-24T06:20:29;20.70;19.80
16532;DHT22;66872;63.142;14.482;2023-01-24T06:23:04;20.70;19.80
16532;DHT22;66872;63.142;14.482;2023-01-24T06:25:31;20.70;19.70
16532;DHT22;66872;63.142;14.482;2023-01-24T06:27:56;20.70;19.70
16532;DHT22;66872;63.142;14.482;2023-01-24T06:30:22;20.70;19.80
16532;DHT22;66872;63.142;14.482;2023-01-24T06:33:01;20.70;19.70
16532;DHT22;66872;63.142;14.482;2023-01-24T06:38:24;20.70;19.70
16532;DHT22;66872;63.142;14.482;2023-01-24T06:41:01;20.70;19.70
16532;DHT22;66872;63.142;14.482;2023-01-24T06:43:27;20.70;19.80
16532;DHT22;66872;63.142;14.482;2023-01-24T06:45:54;20.70;19.70
16532;DHT22;66872;63.142;14.482;2023-01-24T06:48:20;20.70;19.80
16532;DHT22;66872;63.142;14.482;2023-01-24T06:50:46;20.70;19.80
16532;DHT22;66872;63.142;14.482;2023-01-24T06:53:12;20.70;19.80
16532;DHT22;66872;63.142;14.482;2023-01-24T06:55:39;20.70;19.80
16532;DHT22;66872;63.142;14.482;2023-01-24T06:58:09;20.70;19.80
16532;DHT22;66872;63.142;14.482;2023-01-24T07:00:34;20.70;20.40
16532;DHT22;66872;63.142;14.482;2023-01-24T07:03:05;20.70;19.90
16532;DHT22;66872;63.142;14.482;2023-01-24T07:05:33;20.70;19.90
16532;DHT22;66872;63.142;14.482;2023-01-24T07:07:59;20.70;19.90
16532;DHT22;66872;63.142;14.482;2023-01-24T07:10:25;20.70;19.90
16532;DHT22;66872;63.142;14.482;2023-01-24T07:12:51;20.70;19.90
16532;DHT22;66872;63.142;14.482;2023-01-24T07:15:17;20.70;19.90
16532;DHT22;66872;63.142;14.482;2023-01-24T07:17:43;20.70;19.90
16532;DHT22;66872;63.142;14.482;2023-01-24T07:20:10;20.70;19.90
16532;DHT22;66872;63.142;14.482;2023-01-24T07:22:38;20.70;19.90
16532;DHT22;66872;63.142;14.482;2023-01-24T07:25:05;20.80;20.00
16532;DHT22;66872;63.142;14.482;2023-01-24T07:27:31;20.70;20.00
16532;DHT22;66872;63.142;14.482;2023-01-24T07:29:57;20.70;20.10
16532;DHT22;66872;63.142;14.482;2023-01-24T07:32:22;20.70;20.10
16532;DHT22;66872;63.142;14.482;2023-01-24T07:34:48;20.70;20.10
16532;DHT22;66872;63.142;14.482;2023-01-24T07:37:14;20.70;20.60
16532;DHT22;66872;63.142;14.482;2023-01-24T07:39:39;20.70;20.10
16532;DHT22;66872;63.142;14.482;2023-01-24T07:42:05;20.70;20.10
16532;DHT22;66872;63.142;14.482;2023-01-24T07:44:31;20.80;20.20
16532;DHT22;66872;63.142;14.482;2023-01-24T07:46:56;20.70;20.20
16532;DHT22;66872;63.142;14.482;2023-01-24T07:49:22;20.70;20.20
16532;DHT22;66872;63.142;14.482;2023-01-24T07:51:47;20.70;20.30
16532;DHT22;66872;63.142;14.482;2023-01-24T07:54:14;20.70;20.40
16532;DHT22;66872;63.142;14.482;2023-01-24T07:56:40;20.70;20.40
16532;DHT22;66872;63.142;14.482;2023-01-24T07:59:05;20.70;20.40
16532;DHT22;66872;63.142;14.482;2023-01-24T08:01:31;20.70;20.40
16532;DHT22;66872;63.142;14.482;2023-01-24T08:03:58;20.70;20.40
16532;DHT22;66872;63.142;14.482;2023-01-24T08:06:24;20.70;20.40
16532;DHT22;66872;63.142;14.482;2023-01-24T08:08:50;20.70;20.40
16532;DHT22;66872;63.142;14.482;2023-01-24T08:11:16;20.70;20.50
16532;DHT22;66872;63.142;14.482;2023-01-24T08:13:45;20.70;20.50
16532;DHT22;66872;63.142;14.482;2023-01-24T08:16:12;20.70;20.50
16532;DHT22;66872;63.142;14.482;2023-01-24T08:18:39;20.70;20.50
16532;DHT22;66872;63.142;14.482;2023-01-24T08:21:05;20.70;20.50
16532;DHT22;66872;63.142;14.482;2023-01-24T08:23:31;20.70;20.50
16532;DHT22;66872;63.142;14.482;2023-01-24T08:25:57;20.70;20.50
16532;DHT22;66872;63.142;14.482;2023-01-24T08:28:23;20.70;20.50
16532;DHT22;66872;63.142;14.482;2023-01-24T08:30:49;20.70;20.50
16532;DHT22;66872;63.142;14.482;2023-01-24T08:33:15;20.70;20.50
16532;DHT22;66872;63.142;14.482;2023-01-24T08:35:48;20.70;20.50
16532;DHT22;66872;63.142;14.482;2023-01-24T08:38:14;20.70;20.50
16532;DHT22;66872;63.142;14.482;2023-01-24T08:40:41;20.70;20.40
16532;DHT22;66872;63.142;14.482;2023-01-24T08:43:07;20.70;20.40
16532;DHT22;66872;63.142;14.482;2023-01-24T08:45:33;20.70;20.60
16532;DHT22;66872;63.142;14.482;2023-01-24T08:47:59;20.70;20.40
16532;DHT22;66872;63.142;14.482;2023-01-24T08:50:25;20.70;20.50
16532;DHT22;66872;63.142;14.482;2023-01-24T08:52:54;20.70;20.50
16532;DHT22;66872;63.142;14.482;2023-01-24T08:55:24;20.70;20.50
16532;DHT22;66872;63.142;14.482;2023-01-24T08:57:49;20.70;20.50
16532;DHT22;66872;63.142;14.482;2023-01-24T09:00:16;20.70;20.70
16532;DHT22;66872;63.142;14.482;2023-01-24T09:02:42;20.70;20.60
16532;DHT22;66872;63.142;14.482;2023-01-24T09:05:08;20.70;20.60
16532;DHT22;66872;63.142;14.482;2023-01-24T09:07:35;20.70;20.60
16532;DHT22;66872;63.142;14.482;2023-01-24T09:10:03;20.70;20.60
16532;DHT22;66872;63.142;14.482;2023-01-24T09:12:28;20.70;20.60
16532;DHT22;66872;63.142;14.482;2023-01-24T09:14:54;20.70;20.50
16532;DHT22;66872;63.142;14.482;2023-01-24T09:17:20;20.70;20.60
16532;DHT22;66872;63.142;14.482;2023-01-24T09:19:45;20.70;20.60
16532;DHT22;66872;63.142;14.482;2023-01-24T09:22:11;20.70;20.50
16532;DHT22;66872;63.142;14.482;2023-01-24T09:24:37;20.70;20.50
16532;DHT22;66872;63.142;14.482;2023-01-24T09:27:02;20.70;21.00
16532;DHT22;66872;63.142;14.482;2023-01-24T09:29:28;20.70;20.60
16532;DHT22;66872;63.142;14.482;2023-01-24T09:31:53;20.70;21.00
16532;DHT22;66872;63.142;14.482;2023-01-24T09:34:20;20.70;20.60
16532;DHT22;66872;63.142;14.482;2023-01-24T09:36:47;20.70;20.60
16532;DHT22;66872;63.142;14.482;2023-01-24T09:39:14;20.70;20.60
16532;DHT22;66872;63.142;14.482;2023-01-24T09:42:04;20.70;20.60
16532;DHT22;66872;63.142;14.482;2023-01-24T09:47:26;20.70;20.60
16532;DHT22;66872;63.142;14.482;2023-01-24T09:49:59;20.70;20.60
16532;DHT22;66872;63.142;14.482;2023-01-24T09:52:58;20.70;20.60
16532;DHT22;66872;63.142;14.482;2023-01-24T09:55:31;20.70;20.60
16532;DHT22;66872;63.142;14.482;2023-01-24T09:58:24;20.70;20.60
16532;DHT22;66872;63.142;14.482;2023-01-24T10:01:04;20.70;20.60
16532;DHT22;66872;63.142;14.482;2023-01-24T10:03:31;20.70;21.10
16532;DHT22;66872;63.142;14.482;2023-01-24T10:06:15;20.70;20.60
16532;DHT22;66872;63.142;14.482;2023-01-24T10:09:16;20.70;20.60
16532;DHT22;66872;63.142;14.482;2023-01-24T10:12:01;20.70;20.60
16532;DHT22;66872;63.142;14.482;2023-01-24T10:14:46;20.70;20.60
16532;DHT22;66872;63.142;14.482;2023-01-24T10:23:15;20.70;21.10
16532;DHT22;66872;63.142;14.482;2023-01-24T10:26:01;20.70;20.60
16532;DHT22;66872;63.142;14.482;2023-01-24T10:28:37;20.70;21.10
16532;DHT22;66872;63.142;14.482;2023-01-24T10:31:17;20.70;20.60
16532;DHT22;66872;63.142;14.482;2023-01-24T10:33:49;20.70;20.60
16532;DHT22;66872;63.142;14.482;2023-01-24T10:36:53;20.70;20.60
16532;DHT22;66872;63.142;14.482;2023-01-24T10:39:20;20.70;20.60
16532;DHT22;66872;63.142;14.482;2023-01-24T10:41:46;20.70;20.60
16532;DHT22;66872;63.142;14.482;2023-01-24T10:44:28;20.70;20.70
16532;DHT22;66872;63.142;14.482;2023-01-24T10:49:59;20.70;20.70
16532;DHT22;66872;63.142;14.482;2023-01-24T10:52:25;20.70;20.70
16532;DHT22;66872;63.142;14.482;2023-01-24T10:54:55;20.70;20.70
16532;DHT22;66872;63.142;14.482;2023-01-24T10:59:55;20.70;20.70
16532;DHT22;66872;63.142;14.482;2023-01-24T11:02:23;20.70;20.70
16532;DHT22;66872;63.142;14.482;2023-01-24T11:04:59;20.70;20.70
16532;DHT22;66872;63.142;14.482;2023-01-24T11:07:32;20.80;20.80
16532;DHT22;66872;63.142;14.482;2023-01-24T11:10:07;20.80;20.70
16532;DHT22;66872;63.142;14.482;2023-01-24T11:12:34;20.80;20.80
16532;DHT22;66872;63.142;14.482;2023-01-24T11:15:00;20.80;20.80
16532;DHT22;66872;63.142;14.482;2023-01-24T11:17:35;20.80;20.90
16532;DHT22;66872;63.142;14.482;2023-01-24T11:22:50;20.80;20.90
16532;DHT22;66872;63.142;14.482;2023-01-24T11:25:17;20.80;20.90
16532;DHT22;66872;63.142;14.482;2023-01-24T11:27:47;20.80;21.00
16532;DHT22;66872;63.142;14.482;2023-01-24T11:30:15;20.80;21.00
16532;DHT22;66872;63.142;14.482;2023-01-24T11:38:23;20.80;21.00
16532;DHT22;66872;63.142;14.482;2023-01-24T11:52:21;20.80;21.20
16532;DHT22;66872;63.142;14.482;2023-01-24T12:00:56;20.80;21.20
16532;DHT22;66872;63.142;14.482;2023-01-24T12:17:16;20.80;21.30
16532;DHT22;66872;63.142;14.482;2023-01-24T12:22:23;20.80;21.30
16532;DHT22;66872;63.142;14.482;2023-01-24T12:27:39;20.80;21.40
16532;DHT22;66872;63.142;14.482;2023-01-24T12:30:15;20.80;21.80
16532;DHT22;66872;63.142;14.482;2023-01-24T12:32:53;20.80;21.30
16532;DHT22;66872;63.142;14.482;2023-01-24T12:38:31;20.80;21.40
16532;DHT22;66872;63.142;14.482;2023-01-24T12:47:25;20.80;21.30
16532;DHT22;66872;63.142;14.482;2023-01-24T12:50:18;20.80;21.30
16532;DHT22;66872;63.142;14.482;2023-01-24T12:53:14;20.80;21.30
16532;DHT22;66872;63.142;14.482;2023-01-24T12:55:56;20.80;21.20
16532;DHT22;66872;63.142;14.482;2023-01-24T12:58:28;20.80;21.30
16532;DHT22;66872;63.142;14.482;2023-01-24T13:12:13;20.80;21.30
16532;DHT22;66872;63.142;14.482;2023-01-24T13:14:46;20.80;21.30
16532;DHT22;66872;63.142;14.482;2023-01-24T13:33:21;20.80;21.50
16532;DHT22;66872;63.142;14.482;2023-01-24T13:35:52;20.80;21.50
16532;DHT22;66872;63.142;14.482;2023-01-24T13:38:26;20.80;21.50
16532;DHT22;66872;63.142;14.482;2023-01-24T13:41:01;20.80;21.50
16532;DHT22;66872;63.142;14.482;2023-01-24T13:51:54;20.80;21.50
16532;DHT22;66872;63.142;14.482;2023-01-24T13:54:33;20.80;21.50
16532;DHT22;66872;63.142;14.482;2023-01-24T13:57:23;20.80;21.50
16532;DHT22;66872;63.142;14.482;2023-01-24T14:03:20;20.80;21.50
16532;DHT22;66872;63.142;14.482;2023-01-24T14:05:50;20.80;21.50
16532;DHT22;66872;63.142;14.482;2023-01-24T14:11:09;20.80;21.40
16532;DHT22;66872;63.142;14.482;2023-01-24T14:18:58;20.80;21.50
16532;DHT22;66872;63.142;14.482;2023-01-24T14:21:27;20.80;21.50
16532;DHT22;66872;63.142;14.482;2023-01-24T14:24:00;20.80;21.50
16532;DHT22;66872;63.142;14.482;2023-01-24T14:26:27;20.80;21.50
16532;DHT22;66872;63.142;14.482;2023-01-24T14:29:02;20.80;21.50
16532;DHT22;66872;63.142;14.482;2023-01-24T14:31:35;20.80;21.60
16532;DHT22;66872;63.142;14.482;2023-01-24T14:34:24;20.80;21.60
16532;DHT22;66872;63.142;14.482;2023-01-24T14:37:01;20.80;21.60
16532;DHT22;66872;63.142;14.482;2023-01-24T14:39:27;20.80;21.60
16532;DHT22;66872;63.142;14.482;2023-01-24T14:41:53;20.80;21.70
16532;DHT22;66872;63.142;14.482;2023-01-24T14:44:24;20.80;21.70
16532;DHT22;66872;63.142;14.482;2023-01-24T14:46:54;20.80;21.70
16532;DHT22;66872;63.142;14.482;2023-01-24T14:49:44;20.80;21.70
16532;DHT22;66872;63.142;14.482;2023-01-24T14:52:30;20.70;21.60
16532;DHT22;66872;63.142;14.482;2023-01-24T14:55:38;20.80;21.70
16532;DHT22;66872;63.142;14.482;2023-01-24T14:58:24;20.70;21.70
16532;DHT22;66872;63.142;14.482;2023-01-24T15:00:52;20.70;21.70
16532;DHT22;66872;63.142;14.482;2023-01-24T15:03:21;20.70;21.70
16532;DHT22;66872;63.142;14.482;2023-01-24T15:06:02;20.70;21.80
16532;DHT22;66872;63.142;14.482;2023-01-24T15:08:28;20.70;21.80
16532;DHT22;66872;63.142;14.482;2023-01-24T15:11:06;20.80;21.90
16532;DHT22;66872;63.142;14.482;2023-01-24T15:13:57;20.70;21.80
16532;DHT22;66872;63.142;14.482;2023-01-24T15:16:37;20.70;21.90
16532;DHT22;66872;63.142;14.482;2023-01-24T15:19:31;20.70;21.90
16532;DHT22;66872;63.142;14.482;2023-01-24T15:21:57;20.70;21.90
16532;DHT22;66872;63.142;14.482;2023-01-24T15:24:25;20.70;21.90
16532;DHT22;66872;63.142;14.482;2023-01-24T15:26:52;20.70;21.90
16532;DHT22;66872;63.142;14.482;2023-01-24T15:37:44;20.70;22.00
16532;DHT22;66872;63.142;14.482;2023-01-24T15:40:18;20.70;22.00
16532;DHT22;66872;63.142;14.482;2023-01-24T15:42:45;20.70;22.10
16532;DHT22;66872;63.142;14.482;2023-01-24T15:45:52;20.70;22.10
16532;DHT22;66872;63.142;14.482;2023-01-24T15:48:37;20.70;22.00
16532;DHT22;66872;63.142;14.482;2023-01-24T15:51:02;20.70;22.00
16532;DHT22;66872;63.142;14.482;2023-01-24T15:53:32;20.70;22.00
16532;DHT22;66872;63.142;14.482;2023-01-24T15:56:02;20.70;22.00
16532;DHT22;66872;63.142;14.482;2023-01-24T15:58:29;20.70;22.00
16532;DHT22;66872;63.142;14.482;2023-01-24T16:00:57;20.70;22.00
16532;DHT22;66872;63.142;14.482;2023-01-24T16:03:24;20.70;22.00
16532;DHT22;66872;63.142;14.482;2023-01-24T16:05:50;20.70;22.00
16532;DHT22;66872;63.142;14.482;2023-01-24T16:08:16;20.70;22.00
16532;DHT22;66872;63.142;14.482;2023-01-24T16:10:44;20.70;22.00
16532;DHT22;66872;63.142;14.482;2023-01-24T16:13:34;20.70;22.10
16532;DHT22;66872;63.142;14.482;2023-01-24T16:16:03;20.70;22.00
16532;DHT22;66872;63.142;14.482;2023-01-24T16:18:29;20.70;22.00
16532;DHT22;66872;63.142;14.482;2023-01-24T16:20:55;20.70;22.10
16532;DHT22;66872;63.142;14.482;2023-01-24T16:23:20;20.70;22.10
16532;DHT22;66872;63.142;14.482;2023-01-24T16:25:48;20.70;22.10
16532;DHT22;66872;63.142;14.482;2023-01-24T16:28:21;20.70;22.60
16532;DHT22;66872;63.142;14.482;2023-01-24T16:30:49;20.70;22.20
16532;DHT22;66872;63.142;14.482;2023-01-24T16:33:19;20.70;22.20
16532;DHT22;66872;63.142;14.482;2023-01-24T16:35:45;20.70;22.20
16532;DHT22;66872;63.142;14.482;2023-01-24T16:38:13;20.70;22.20
16532;DHT22;66872;63.142;14.482;2023-01-24T16:40:40;20.70;22.20
16532;DHT22;66872;63.142;14.482;2023-01-24T16:43:06;20.70;22.20
16532;DHT22;66872;63.142;14.482;2023-01-24T16:45:33;20.70;22.20
16532;DHT22;66872;63.142;14.482;2023-01-24T16:47:59;20.70;22.20
16532;DHT22;66872;63.142;14.482;2023-01-24T16:50:25;20.70;22.20
16532;DHT22;66872;63.142;14.482;2023-01-24T16:52:52;20.70;22.20
16532;DHT22;66872;63.142;14.482;2023-01-24T16:55:18;20.70;22.20
16532;DHT22;66872;63.142;14.482;2023-01-24T16:57:44;20.70;22.20
16532;DHT22;66872;63.142;14.482;2023-01-24T17:00:11;20.70;22.20
16532;DHT22;66872;63.142;14.482;2023-01-24T17:02:41;20.70;22.20
16532;DHT22;66872;63.142;14.482;2023-01-24T17:05:08;20.70;22.20
16532;DHT22;66872;63.142;14.482;2023-01-24T17:07:34;20.70;22.10
16532;DHT22;66872;63.142;14.482;2023-01-24T17:10:00;20.70;22.20
16532;DHT22;66872;63.142;14.482;2023-01-24T17:12:28;20.70;22.10
16532;DHT22;66872;63.142;14.482;2023-01-24T17:14:54;20.70;22.10
16532;DHT22;66872;63.142;14.482;2023-01-24T17:17:20;20.70;22.10
16532;DHT22;66872;63.142;14.482;2023-01-24T17:19:45;20.70;22.10
16532;DHT22;66872;63.142;14.482;2023-01-24T17:22:11;20.70;22.10
16532;DHT22;66872;63.142;14.482;2023-01-24T17:24:37;20.70;22.50
16532;DHT22;66872;63.142;14.482;2023-01-24T17:27:02;20.70;22.10
16532;DHT22;66872;63.142;14.482;2023-01-24T17:29:28;20.70;22.10
16532;DHT22;66872;63.142;14.482;2023-01-24T17:31:55;20.70;22.10
16532;DHT22;66872;63.142;14.482;2023-01-24T17:34:21;20.70;22.10
16532;DHT22;66872;63.142;14.482;2023-01-24T17:36:47;20.70;22.10
16532;DHT22;66872;63.142;14.482;2023-01-24T17:39:13;20.70;22.10
16532;DHT22;66872;63.142;14.482;2023-01-24T17:41:39;20.70;22.10
16532;DHT22;66872;63.142;14.482;2023-01-24T17:44:05;20.70;22.10
16532;DHT22;66872;63.142;14.482;2023-01-24T17:46:31;20.70;22.10
16532;DHT22;66872;63.142;14.482;2023-01-24T17:48:57;20.70;22.10
16532;DHT22;66872;63.142;14.482;2023-01-24T17:51:23;20.70;22.10
16532;DHT22;66872;63.142;14.482;2023-01-24T17:53:49;20.70;22.10
16532;DHT22;66872;63.142;14.482;2023-01-24T17:56:16;20.70;22.10
16532;DHT22;66872;63.142;14.482;2023-01-24T17:58:42;20.70;22.10
16532;DHT22;66872;63.142;14.482;2023-01-24T18:01:08;20.70;22.10
16532;DHT22;66872;63.142;14.482;2023-01-24T18:03:33;20.70;22.10
16532;DHT22;66872;63.142;14.482;2023-01-24T18:06:02;20.70;22.10
16532;DHT22;66872;63.142;14.482;2023-01-24T18:08:28;20.70;22.10
16532;DHT22;66872;63.142;14.482;2023-01-24T18:10:54;20.70;22.10
16532;DHT22;66872;63.142;14.482;2023-01-24T18:13:20;20.70;22.10
16532;DHT22;66872;63.142;14.482;2023-01-24T18:15:46;20.70;22.10
16532;DHT22;66872;63.142;14.482;2023-01-24T18:18:12;20.70;22.10
16532;DHT22;66872;63.142;14.482;2023-01-24T18:20:39;20.70;22.10
16532;DHT22;66872;63.142;14.482;2023-01-24T18:23:06;20.70;22.10
16532;DHT22;66872;63.142;14.482;2023-01-24T18:25:32;20.70;22.20
16532;DHT22;66872;63.142;14.482;2023-01-24T18:27:58;20.70;22.10
16532;DHT22;66872;63.142;14.482;2023-01-24T18:30:23;20.70;22.10
16532;DHT22;66872;63.142;14.482;2023-01-24T18:32:49;20.70;22.20